createdAt,value
2019-03-15T00:01:50.542Z,76.29
2019-03-15T00:04:19.312Z,75.54
2019-03-15T00:06:48.200Z,76.12
2019-03-15T00:09:17.637Z,75.81
2019-03-15T00:11:46.395Z,76.24
2019-03-15T00:14:15.239Z,75.95
2019-03-15T00:16:44.004Z,75.52
2019-03-15T00:19:12.894Z,75.60
2019-03-15T00:21:41.805Z,75.24
2019-03-15T00:24:10.571Z,74.59
2019-03-15T00:26:39.454Z,75.09
2019-03-15T00:29:08.885Z,74.56
2019-03-15T00:31:37.808Z,75.21
2019-03-15T00:34:06.939Z,74.63
2019-03-15T00:36:36.372Z,75.32
2019-03-15T00:39:06.645Z,75.24
2019-03-15T00:41:35.409Z,74.67
2019-03-15T00:44:04.249Z,74.75
2019-03-15T00:46:33.054Z,74.69
2019-03-15T00:49:02.485Z,74.89
2019-03-15T00:51:31.959Z,74.57
2019-03-15T00:54:01.339Z,74.27
2019-03-15T00:56:30.776Z,74.15
2019-03-15T00:58:59.614Z,74.23
2019-03-15T01:01:28.491Z,74.27
2019-03-15T01:03:57.308Z,74.33
2019-03-15T01:06:26.731Z,74.53
2019-03-15T01:08:56.169Z,74.51
2019-03-15T01:11:25.540Z,74.30
2019-03-15T01:13:54.913Z,74.33
2019-03-15T01:16:23.672Z,74.37
2019-03-15T01:18:52.499Z,74.18
2019-03-15T01:21:21.916Z,74.45
2019-03-15T01:23:50.669Z,74.34
2019-03-15T01:26:19.454Z,73.35
2019-03-15T01:28:48.810Z,74.13
2019-03-15T01:31:18.296Z,73.29
2019-03-15T01:33:47.197Z,73.52
2019-03-15T01:36:16.651Z,73.46
2019-03-15T01:38:46.147Z,73.56
2019-03-15T01:41:14.908Z,73.20
2019-03-15T01:43:44.262Z,73.03
2019-03-15T01:46:13.067Z,73.13
2019-03-15T01:48:42.596Z,72.81
2019-03-15T01:51:11.383Z,73.47
2019-03-15T01:53:40.215Z,73.05
2019-03-15T01:56:09.601Z,73.22
2019-03-15T01:58:38.395Z,72.55
2019-03-15T02:01:07.143Z,72.62
2019-03-15T02:03:35.977Z,72.59
2019-03-15T02:06:04.795Z,72.44
2019-03-15T02:08:34.147Z,72.54
2019-03-15T02:11:03.714Z,72.52
2019-03-15T02:13:32.607Z,72.95
2019-03-15T02:16:01.495Z,73.02
2019-03-15T02:18:30.327Z,72.91
2019-03-15T02:20:59.743Z,72.68
2019-03-15T02:23:29.158Z,72.66
2019-03-15T02:25:57.940Z,72.58
2019-03-15T02:28:26.762Z,72.30
2019-03-15T02:30:55.592Z,72.42
2019-03-15T02:33:24.426Z,72.44
2019-03-15T02:35:53.863Z,72.73
2019-03-15T02:38:23.292Z,72.92
2019-03-15T02:40:53.314Z,73.02
2019-03-15T02:43:22.717Z,73.31
2019-03-15T02:45:51.551Z,73.67
2019-03-15T02:48:20.335Z,73.36
2019-03-15T02:50:49.218Z,73.57
2019-03-15T02:53:18.560Z,73.03
2019-03-15T02:55:48.323Z,73.57
2019-03-15T02:58:17.270Z,73.88
2019-03-15T03:00:46.045Z,73.53
2019-03-15T03:03:14.887Z,73.28
2019-03-15T03:05:43.699Z,73.21
2019-03-15T03:08:14.163Z,72.95
2019-03-15T03:10:43.202Z,72.73
2019-03-15T03:13:11.960Z,72.58
2019-03-15T03:15:40.785Z,72.30
2019-03-15T03:18:09.552Z,72.66
2019-03-15T03:20:38.386Z,72.95
2019-03-15T03:23:07.313Z,73.36
2019-03-15T03:25:36.104Z,73.06
2019-03-15T03:28:04.958Z,73.41
2019-03-15T03:30:33.731Z,73.28
2019-03-15T03:33:02.492Z,73.11
2019-03-15T03:35:31.252Z,73.52
2019-03-15T03:38:00.112Z,73.43
2019-03-15T03:40:29.589Z,73.41
2019-03-15T03:42:58.510Z,73.63
2019-03-15T03:45:27.278Z,73.31
2019-03-15T03:47:56.118Z,73.56
2019-03-15T03:50:24.885Z,73.85
2019-03-15T03:52:53.651Z,74.10
2019-03-15T03:55:22.421Z,74.26
2019-03-15T03:57:51.271Z,74.16
2019-03-15T04:00:20.103Z,74.32
2019-03-15T04:02:48.865Z,75.06
2019-03-15T04:05:17.714Z,75.30
2019-03-15T04:07:46.555Z,75.11
2019-03-15T04:10:15.401Z,75.43
2019-03-15T04:12:44.239Z,75.36
2019-03-15T04:15:13.006Z,75.33
2019-03-15T04:17:41.846Z,75.38
2019-03-15T04:20:14.287Z,75.26
2019-03-15T04:22:43.124Z,75.64
2019-03-15T04:25:11.894Z,75.74
2019-03-15T04:27:40.728Z,75.56
2019-03-15T04:30:13.609Z,76.17
2019-03-15T04:32:42.440Z,76.68
2019-03-15T04:35:11.281Z,76.81
2019-03-15T04:37:40.151Z,77.21
2019-03-15T04:40:11.287Z,77.36
2019-03-15T04:42:40.130Z,77.57
2019-03-15T04:45:09.283Z,78.16
2019-03-15T04:47:38.060Z,78.24
2019-03-15T04:50:07.635Z,77.76
2019-03-15T04:52:36.469Z,77.73
2019-03-15T04:55:06.305Z,77.03
2019-03-15T04:57:35.224Z,76.70
2019-03-15T05:00:04.785Z,77.25
2019-03-15T05:02:33.685Z,77.28
2019-03-15T05:05:02.523Z,77.38
2019-03-15T05:07:31.400Z,77.44
2019-03-15T05:10:00.404Z,77.37
2019-03-15T05:12:29.186Z,77.22
2019-03-15T05:14:57.973Z,77.50
2019-03-15T05:17:26.790Z,77.40
2019-03-15T05:19:55.620Z,77.43
2019-03-15T05:22:24.398Z,77.52
2019-03-15T05:24:53.248Z,77.13
2019-03-15T05:27:22.080Z,76.71
2019-03-15T05:29:50.925Z,76.92
2019-03-15T05:32:19.691Z,76.43
2019-03-15T05:34:48.492Z,76.83
2019-03-15T05:37:17.276Z,77.45
2019-03-15T05:39:46.058Z,77.39
2019-03-15T05:42:14.897Z,77.31
2019-03-15T05:44:43.730Z,76.79
2019-03-15T05:47:12.568Z,76.34
2019-03-15T05:49:41.409Z,75.47
2019-03-15T05:52:10.264Z,75.06
2019-03-15T05:54:39.126Z,74.68
2019-03-15T05:57:08.479Z,73.59
2019-03-15T05:59:37.923Z,72.78
2019-03-15T06:02:07.369Z,72.05
2019-03-15T06:04:36.856Z,71.58
2019-03-15T06:07:06.219Z,71.50
2019-03-15T06:09:35.654Z,70.69
2019-03-15T06:12:05.034Z,70.36
2019-03-15T06:14:34.485Z,70.56
2019-03-15T06:17:03.918Z,70.37
2019-03-15T06:19:33.352Z,70.02
2019-03-15T06:22:02.818Z,69.63
2019-03-15T06:24:32.250Z,68.95
2019-03-15T06:27:01.645Z,68.33
2019-03-15T06:29:31.041Z,68.07
2019-03-15T06:32:00.427Z,68.37
2019-03-15T06:34:29.876Z,67.89
2019-03-15T06:36:59.235Z,67.29
2019-03-15T06:39:28.686Z,67.41
2019-03-15T06:41:58.137Z,67.17
2019-03-15T06:44:27.571Z,65.61
2019-03-15T06:46:56.994Z,62.64
2019-03-15T06:49:26.372Z,60.06
2019-03-15T06:51:55.720Z,58.77
2019-03-15T06:54:25.085Z,56.70
2019-03-15T06:56:54.518Z,55.60
2019-03-15T06:59:23.888Z,55.62
2019-03-15T07:01:53.273Z,54.75
2019-03-15T07:04:22.659Z,54.51
2019-03-15T07:06:52.042Z,54.33
2019-03-15T07:09:21.422Z,54.45
2019-03-15T07:11:50.793Z,53.75
2019-03-15T07:14:20.398Z,52.65
2019-03-15T07:16:49.771Z,53.26
2019-03-15T07:19:26.047Z,52.62
2019-03-15T07:21:50.307Z,52.65
2019-03-15T07:24:24.936Z,52.52
2019-03-15T07:26:50.941Z,51.42
2019-03-15T07:29:20.435Z,51.26
2019-03-15T07:31:49.784Z,50.58
2019-03-15T07:34:19.237Z,51.46
2019-03-15T07:36:48.618Z,50.97
2019-03-15T07:39:18.003Z,50.34
2019-03-15T07:41:47.447Z,50.09
2019-03-15T07:44:16.888Z,50.56
2019-03-15T07:46:46.256Z,50.06
2019-03-15T07:49:15.695Z,49.55
2019-03-15T07:51:45.053Z,49.82
2019-03-15T07:54:14.417Z,50.52
2019-03-15T07:56:43.855Z,49.34
2019-03-15T07:59:13.298Z,49.33
2019-03-15T08:01:42.672Z,48.77
2019-03-15T08:04:17.063Z,48.64
2019-03-15T08:06:43.153Z,48.73
2019-03-15T08:09:12.500Z,48.25
2019-03-15T08:11:41.872Z,48.00
2019-03-15T08:14:11.302Z,46.71
2019-03-15T08:16:40.746Z,46.16
2019-03-15T08:19:10.131Z,45.79
2019-03-15T08:21:39.498Z,44.86
2019-03-15T08:24:08.933Z,44.23
2019-03-15T08:26:38.304Z,43.01
2019-03-15T08:29:09.614Z,43.77
2019-03-15T08:31:38.908Z,42.77
2019-03-15T08:34:08.338Z,43.04
2019-03-15T08:36:37.780Z,41.75
2019-03-15T08:39:07.535Z,42.04
2019-03-15T08:41:36.978Z,40.54
2019-03-15T08:44:06.411Z,40.05
2019-03-15T08:46:35.837Z,39.50
2019-03-15T08:49:05.256Z,38.98
2019-03-15T08:51:34.610Z,39.52
2019-03-15T08:54:04.139Z,39.11
2019-03-15T08:56:33.512Z,36.88
2019-03-15T08:59:02.883Z,36.92
2019-03-15T09:01:32.248Z,37.37
2019-03-15T09:04:01.685Z,35.94
2019-03-15T09:06:31.119Z,36.89
2019-03-15T09:09:00.557Z,34.22
2019-03-15T09:11:30.014Z,35.28
2019-03-15T09:13:59.516Z,33.84
2019-03-15T09:16:28.916Z,33.46
2019-03-15T09:18:58.346Z,33.10
2019-03-15T09:21:27.781Z,31.28
2019-03-15T09:23:57.150Z,31.25
2019-03-15T09:26:26.592Z,33.28
2019-03-15T09:28:55.951Z,34.11
2019-03-15T09:31:25.319Z,33.15
2019-03-15T09:33:54.687Z,33.56
2019-03-15T09:36:24.088Z,34.10
2019-03-15T09:38:53.541Z,33.92
2019-03-15T09:41:31.970Z,34.13
2019-03-15T09:43:53.995Z,34.36
2019-03-15T09:46:23.421Z,35.04
2019-03-15T09:48:52.824Z,34.23
2019-03-15T09:51:22.269Z,33.10
2019-03-15T09:53:51.692Z,34.24
2019-03-15T09:56:21.121Z,33.50
2019-03-15T09:58:50.472Z,32.82
2019-03-15T10:01:34.156Z,32.13
2019-03-15T10:03:50.898Z,30.69
2019-03-15T10:06:20.332Z,31.79
2019-03-15T10:08:49.759Z,31.06
2019-03-15T10:11:19.120Z,31.70
2019-03-15T10:13:48.548Z,31.24
2019-03-15T10:16:17.977Z,31.62
2019-03-15T10:18:50.344Z,33.01
2019-03-15T10:21:18.476Z,31.74
2019-03-15T10:23:47.909Z,32.22
2019-03-15T10:26:17.277Z,31.65
2019-03-15T10:28:46.724Z,30.58
2019-03-15T10:31:17.501Z,30.75
2019-03-15T10:33:50.791Z,30.32
2019-03-15T10:36:18.008Z,28.97
2019-03-15T10:38:47.451Z,28.21
2019-03-15T10:41:16.876Z,28.81
2019-03-15T10:43:46.320Z,29.20
2019-03-15T10:46:15.666Z,29.01
2019-03-15T10:48:45.019Z,29.10
2019-03-15T10:51:14.363Z,27.46
2019-03-15T10:53:43.706Z,27.47
2019-03-15T10:56:13.150Z,27.04
2019-03-15T10:58:42.514Z,27.17
2019-03-15T11:01:11.941Z,27.72
2019-03-15T11:03:41.374Z,27.30
2019-03-15T11:06:10.721Z,27.98
2019-03-15T11:08:40.163Z,28.33
2019-03-15T11:11:09.511Z,28.46
2019-03-15T11:13:38.956Z,29.73
2019-03-15T11:16:08.373Z,28.86
2019-03-15T11:18:37.750Z,30.20
2019-03-15T11:21:07.205Z,30.99
2019-03-15T11:23:36.530Z,27.57
2019-03-15T11:26:13.547Z,28.25
2019-03-15T11:28:36.965Z,27.46
2019-03-15T11:31:06.389Z,27.57
2019-03-15T11:33:35.750Z,27.08
2019-03-15T11:36:05.109Z,26.17
2019-03-15T11:38:34.458Z,25.86
2019-03-15T11:41:03.823Z,27.10
2019-03-15T11:43:33.171Z,26.41
2019-03-15T11:46:02.528Z,24.82
2019-03-15T11:48:31.872Z,25.89
2019-03-15T11:51:01.298Z,25.74
2019-03-15T11:53:30.776Z,24.88
2019-03-15T11:56:00.120Z,25.91
2019-03-15T11:58:29.467Z,24.96
2019-03-15T12:00:58.894Z,25.42
2019-03-15T12:03:28.228Z,25.10
2019-03-15T12:05:57.643Z,25.39
2019-03-15T12:08:27.002Z,24.44
2019-03-15T12:10:56.340Z,23.79
2019-03-15T12:13:25.764Z,24.34
2019-03-15T12:15:55.121Z,23.35
2019-03-15T12:18:24.552Z,24.57
2019-03-15T12:20:53.979Z,25.36
2019-03-15T12:23:23.412Z,24.65
2019-03-15T12:25:52.828Z,23.24
2019-03-15T12:28:22.185Z,23.28
2019-03-15T12:30:51.543Z,22.36
2019-03-15T12:33:20.900Z,23.36
2019-03-15T12:35:50.250Z,23.44
2019-03-15T12:38:19.677Z,23.53
2019-03-15T12:40:49.116Z,23.98
2019-03-15T12:43:18.452Z,22.29
2019-03-15T12:45:47.805Z,22.76
2019-03-15T12:48:17.233Z,23.93
2019-03-15T12:50:46.661Z,24.49
2019-03-15T12:53:16.062Z,24.57
2019-03-15T12:55:45.483Z,24.26
2019-03-15T12:58:14.899Z,23.77
2019-03-15T13:00:44.330Z,23.54
2019-03-15T13:03:13.777Z,23.23
2019-03-15T13:05:43.207Z,23.22
2019-03-15T13:08:12.555Z,22.92
2019-03-15T13:10:41.987Z,22.95
2019-03-15T13:13:11.408Z,22.41
2019-03-15T13:15:40.855Z,22.89
2019-03-15T13:18:10.277Z,21.84
2019-03-15T13:20:39.617Z,21.54
2019-03-15T13:23:09.041Z,22.00
2019-03-15T13:25:38.414Z,22.64
2019-03-15T13:28:07.763Z,23.05
2019-03-15T13:30:37.191Z,23.25
2019-03-15T13:33:19.112Z,22.38
2019-03-15T13:35:37.702Z,22.07
2019-03-15T13:38:07.067Z,22.59
2019-03-15T13:40:36.417Z,22.44
2019-03-15T13:43:05.773Z,22.29
2019-03-15T13:45:35.193Z,22.31
2019-03-15T13:48:04.616Z,21.52
2019-03-15T13:50:33.972Z,21.68
2019-03-15T13:53:03.327Z,21.23
2019-03-15T13:55:32.681Z,22.09
2019-03-15T13:58:02.104Z,21.88
2019-03-15T14:00:31.459Z,21.53
2019-03-15T14:03:00.884Z,21.89
2019-03-15T14:05:30.237Z,21.37
2019-03-15T14:08:11.265Z,21.50
2019-03-15T14:10:30.757Z,21.20
2019-03-15T14:13:00.117Z,21.05
2019-03-15T14:15:29.534Z,20.95
2019-03-15T14:17:58.999Z,20.86
2019-03-15T14:20:28.440Z,21.26
2019-03-15T14:22:57.849Z,21.49
2019-03-15T14:25:28.175Z,21.15
2019-03-15T14:27:57.625Z,20.12
2019-03-15T14:30:27.047Z,20.73
2019-03-15T14:32:56.408Z,20.71
2019-03-15T14:35:25.836Z,20.91
2019-03-15T14:37:55.363Z,20.70
2019-03-15T14:40:25.059Z,21.34
2019-03-15T14:42:54.636Z,20.91
2019-03-15T14:45:24.247Z,21.03
2019-03-15T14:47:53.643Z,20.98
2019-03-15T14:50:23.073Z,21.65
2019-03-15T14:52:52.414Z,21.71
2019-03-15T14:55:21.843Z,21.82
2019-03-15T14:57:53.311Z,22.12
2019-03-15T15:00:22.351Z,22.25
2019-03-15T15:02:51.769Z,22.93
2019-03-15T15:05:21.131Z,22.48
2019-03-15T15:07:50.497Z,22.56
2019-03-15T15:10:20.026Z,22.24
2019-03-15T15:12:49.505Z,22.19
2019-03-15T15:15:22.154Z,23.25
2019-03-15T15:17:51.581Z,22.76
2019-03-15T15:20:21.011Z,22.46
2019-03-15T15:22:50.442Z,22.14
2019-03-15T15:25:19.892Z,22.88
2019-03-15T15:27:49.306Z,22.53
2019-03-15T15:30:19.049Z,22.73
2019-03-15T15:32:48.483Z,22.69
2019-03-15T15:35:17.858Z,23.47
2019-03-15T15:37:47.302Z,25.01
2019-03-15T15:40:18.526Z,26.08
2019-03-15T15:42:47.893Z,26.18
2019-03-15T15:45:17.258Z,28.07
2019-03-15T15:47:46.701Z,29.51
2019-03-15T15:50:16.562Z,30.13
2019-03-15T15:52:46.016Z,30.53
2019-03-15T15:55:16.245Z,30.67
2019-03-15T15:57:45.675Z,30.64
2019-03-15T16:00:18.505Z,31.29
2019-03-15T16:02:47.950Z,31.13
2019-03-15T16:05:17.373Z,31.40
2019-03-15T16:07:46.817Z,31.71
2019-03-15T16:10:18.256Z,32.46
2019-03-15T16:12:47.573Z,32.46
2019-03-15T16:15:19.993Z,32.95
2019-03-15T16:17:49.432Z,33.09
2019-03-15T16:20:18.874Z,33.49
2019-03-15T16:22:48.320Z,33.83
2019-03-15T16:25:17.769Z,33.73
2019-03-15T16:27:47.149Z,33.76
2019-03-15T16:30:18.587Z,33.74
2019-03-15T16:32:48.252Z,34.32
2019-03-15T16:35:17.701Z,34.60
2019-03-15T16:37:47.071Z,34.80
2019-03-15T16:40:16.807Z,35.48
2019-03-15T16:42:46.192Z,34.95
2019-03-15T16:45:24.131Z,35.99
2019-03-15T16:47:53.498Z,35.34
2019-03-15T16:50:22.956Z,35.54
2019-03-15T16:52:52.381Z,35.81
2019-03-15T16:55:21.801Z,36.54
2019-03-15T16:57:51.262Z,36.03
2019-03-15T17:00:20.710Z,36.27
2019-03-15T17:02:50.178Z,36.39
2019-03-15T17:05:19.601Z,36.64
2019-03-15T17:07:49.033Z,36.23
2019-03-15T17:10:20.054Z,36.43
2019-03-15T17:12:49.493Z,37.00
2019-03-15T17:15:21.492Z,35.66
2019-03-15T17:17:50.940Z,36.14
2019-03-15T17:20:20.380Z,36.06
2019-03-15T17:22:49.807Z,36.24
2019-03-15T17:25:19.233Z,37.11
2019-03-15T17:27:48.682Z,37.23
2019-03-15T17:30:18.619Z,36.35
2019-03-15T17:32:48.055Z,38.21
2019-03-15T17:35:21.223Z,36.55
2019-03-15T17:37:50.655Z,35.59
2019-03-15T17:40:21.009Z,35.23
2019-03-15T17:42:50.371Z,34.63
2019-03-15T17:45:19.749Z,34.39
2019-03-15T17:47:49.182Z,34.40
2019-03-15T17:50:22.978Z,34.46
2019-03-15T17:52:52.403Z,34.25
2019-03-15T17:55:21.864Z,34.48
2019-03-15T17:57:51.307Z,33.95
2019-03-15T18:00:27.967Z,34.51
2019-03-15T18:02:57.524Z,33.80
2019-03-15T18:05:26.953Z,34.40
2019-03-15T18:07:56.424Z,34.02
2019-03-15T18:10:25.842Z,34.95
2019-03-15T18:12:55.284Z,34.88
2019-03-15T18:15:24.729Z,34.97
2019-03-15T18:17:54.188Z,35.30
2019-03-15T18:20:23.620Z,35.36
2019-03-15T18:22:53.077Z,35.39
2019-03-15T18:25:22.565Z,34.90
2019-03-15T18:27:52.807Z,34.99
2019-03-15T18:30:22.318Z,34.40
2019-03-15T18:32:51.804Z,34.76
2019-03-15T18:35:32.959Z,34.94
2019-03-15T18:37:52.651Z,36.14
2019-03-15T18:40:22.118Z,35.58
2019-03-15T18:42:51.569Z,36.29
2019-03-15T18:45:21.008Z,36.90
2019-03-15T18:47:50.654Z,37.19
2019-03-15T18:50:24.774Z,36.34
2019-03-15T18:52:54.155Z,36.87
2019-03-15T18:55:23.613Z,36.48
2019-03-15T18:57:53.042Z,36.95
2019-03-15T19:00:23.640Z,37.35
2019-03-15T19:02:53.084Z,37.03
2019-03-15T19:05:22.546Z,36.80
2019-03-15T19:07:51.931Z,36.88
2019-03-15T19:10:21.396Z,36.64
2019-03-15T19:12:50.914Z,39.25
2019-03-15T19:15:21.550Z,37.79
2019-03-15T19:17:51.011Z,37.67
2019-03-15T19:20:20.387Z,37.46
2019-03-15T19:22:49.844Z,38.50
2019-03-15T19:25:19.294Z,37.73
2019-03-15T19:27:48.773Z,38.33
2019-03-15T19:30:21.241Z,38.38
2019-03-15T19:32:58.906Z,38.05
2019-03-15T19:35:30.160Z,38.47
2019-03-15T19:37:59.614Z,38.38
2019-03-15T19:40:29.072Z,38.07
2019-03-15T19:42:58.522Z,38.14
2019-03-15T19:45:28.053Z,37.57
2019-03-15T19:47:57.580Z,37.68
2019-03-15T19:50:27.033Z,38.03
2019-03-15T19:52:56.480Z,38.45
2019-03-15T19:55:25.996Z,38.71
2019-03-15T19:57:55.441Z,39.23
2019-03-15T20:00:24.945Z,39.19
2019-03-15T20:02:54.391Z,39.56
2019-03-15T20:05:23.758Z,40.36
2019-03-15T20:07:53.326Z,41.31
2019-03-15T20:10:22.805Z,41.29
2019-03-15T20:12:52.262Z,41.76
2019-03-15T20:15:21.630Z,42.33
2019-03-15T20:17:51.056Z,43.07
2019-03-15T20:20:20.979Z,43.26
2019-03-15T20:22:50.422Z,44.13
2019-03-15T20:25:19.840Z,44.79
2019-03-15T20:27:49.254Z,45.01
2019-03-15T20:30:25.974Z,45.16
2019-03-15T20:32:51.068Z,45.41
2019-03-15T20:35:20.510Z,45.72
2019-03-15T20:37:49.964Z,46.08
2019-03-15T20:40:19.408Z,46.16
2019-03-15T20:42:48.774Z,46.84
2019-03-15T20:45:26.109Z,47.22
2019-03-15T20:47:55.513Z,47.81
2019-03-15T20:50:24.944Z,47.83
2019-03-15T20:53:07.251Z,48.48
2019-03-15T20:55:28.539Z,48.61
2019-03-15T20:57:56.729Z,48.88
2019-03-15T21:00:35.508Z,48.76
2019-03-15T21:02:57.250Z,49.04
2019-03-15T21:05:26.702Z,48.97
2019-03-15T21:07:56.120Z,48.77
2019-03-15T21:10:25.499Z,48.31
2019-03-15T21:12:54.854Z,48.24
2019-03-15T21:15:24.283Z,48.38
2019-03-15T21:17:53.627Z,48.58
2019-03-15T21:20:23.196Z,49.02
2019-03-15T21:22:52.583Z,49.40
2019-03-15T21:25:21.962Z,49.70
2019-03-15T21:27:54.142Z,49.62
2019-03-15T21:30:25.320Z,49.35
2019-03-15T21:32:54.744Z,48.83
2019-03-15T21:35:24.189Z,48.87
2019-03-15T21:37:53.625Z,48.58
2019-03-15T21:40:23.362Z,49.07
2019-03-15T21:42:52.785Z,48.81
2019-03-15T21:45:22.215Z,48.39
2019-03-15T21:47:51.638Z,48.21
2019-03-15T21:50:24.239Z,48.58
2019-03-15T21:52:53.658Z,48.96
2019-03-15T21:55:23.087Z,48.74
2019-03-15T21:57:52.518Z,49.04
2019-03-15T22:00:21.951Z,48.91
2019-03-15T22:02:51.362Z,48.85
2019-03-15T22:05:20.793Z,48.86
2019-03-15T22:07:50.214Z,48.96
2019-03-15T22:10:19.561Z,48.79
2019-03-15T22:12:48.925Z,48.96
2019-03-15T22:15:18.369Z,49.18
2019-03-15T22:17:47.879Z,49.41
2019-03-15T22:20:17.784Z,49.90
2019-03-15T22:22:47.144Z,49.95
2019-03-15T22:25:16.506Z,49.90
2019-03-15T22:27:45.960Z,50.12
2019-03-15T22:30:15.672Z,50.18
2019-03-15T22:32:45.107Z,50.31
2019-03-15T22:35:14.450Z,51.32
2019-03-15T22:37:43.807Z,51.40
2019-03-15T22:40:14.252Z,51.49
2019-03-15T22:42:43.683Z,51.66
2019-03-15T22:45:14.411Z,51.73
2019-03-15T22:47:43.829Z,52.39
2019-03-15T22:50:14.243Z,52.62
2019-03-15T22:52:43.614Z,52.03
2019-03-15T22:55:13.054Z,51.95
2019-03-15T22:57:42.490Z,51.93
2019-03-15T23:00:16.762Z,51.63
2019-03-15T23:02:45.616Z,51.74
2019-03-15T23:05:14.823Z,52.22
2019-03-15T23:07:44.288Z,52.22
2019-03-15T23:10:13.728Z,52.03
2019-03-15T23:12:42.509Z,52.98
2019-03-15T23:15:11.979Z,53.36
2019-03-15T23:17:40.753Z,53.64
2019-03-15T23:20:11.820Z,53.61
2019-03-15T23:22:40.620Z,54.20
2019-03-15T23:25:09.688Z,54.28
2019-03-15T23:27:38.527Z,54.01
2019-03-15T23:30:12.950Z,54.21
2019-03-15T23:32:41.935Z,54.18
2019-03-15T23:35:10.778Z,53.84
2019-03-15T23:37:39.609Z,53.97
2019-03-15T23:40:10.816Z,54.03
2019-03-15T23:42:39.767Z,54.08
2019-03-15T23:45:10.056Z,54.31
2019-03-15T23:47:38.835Z,53.95
2019-03-15T23:50:12.997Z,53.99
2019-03-15T23:52:41.835Z,54.12
2019-03-15T23:55:10.874Z,54.07
2019-03-15T23:57:39.643Z,54.38
